sensor_id;sensor_type;location;lat;lon;timestamp;P1;durP1;ratioP1;P2;durP2;ratioP2
12601;SDS011;30282;16.436;99.370;2023-05-19T00:01:43;45.33;;;28.60;;
12601;SDS011;30282;16.436;99.370;2023-05-19T00:04:14;46.37;;;30.10;;
12601;SDS011;30282;16.436;99.370;2023-05-19T00:06:43;40.07;;;29.00;;
12601;SDS011;30282;16.436;99.370;2023-05-19T00:09:16;41.33;;;28.13;;
12601;SDS011;30282;16.436;99.370;2023-05-19T00:11:48;49.93;;;27.37;;
12601;SDS011;30282;16.436;99.370;2023-05-19T00:14:18;48.53;;;28.10;;
12601;SDS011;30282;16.436;99.370;2023-05-19T00:16:47;35.80;;;25.87;;
12601;SDS011;30282;16.436;99.370;2023-05-19T00:19:17;75.83;;;29.10;;
12601;SDS011;30282;16.436;99.370;2023-05-19T00:21:46;72.20;;;37.07;;
12601;SDS011;30282;16.436;99.370;2023-05-19T00:24:16;54.90;;;37.30;;
12601;SDS011;30282;16.436;99.370;2023-05-19T00:26:45;60.23;;;37.03;;
12601;SDS011;30282;16.436;99.370;2023-05-19T00:29:16;51.97;;;38.77;;
12601;SDS011;30282;16.436;99.370;2023-05-19T00:31:45;63.23;;;41.17;;
12601;SDS011;30282;16.436;99.370;2023-05-19T00:34:14;61.63;;;39.90;;
12601;SDS011;30282;16.436;99.370;2023-05-19T00:36:43;62.67;;;38.70;;
12601;SDS011;30282;16.436;99.370;2023-05-19T00:39:13;72.73;;;49.33;;
12601;SDS011;30282;16.436;99.370;2023-05-19T00:41:42;70.27;;;48.30;;
12601;SDS011;30282;16.436;99.370;2023-05-19T00:44:13;59.77;;;41.10;;
12601;SDS011;30282;16.436;99.370;2023-05-19T00:46:42;55.10;;;39.37;;
12601;SDS011;30282;16.436;99.370;2023-05-19T00:49:11;61.63;;;41.70;;
12601;SDS011;30282;16.436;99.370;2023-05-19T00:51:41;70.47;;;42.90;;
12601;SDS011;30282;16.436;99.370;2023-05-19T00:54:10;61.57;;;39.30;;
12601;SDS011;30282;16.436;99.370;2023-05-19T00:56:40;44.47;;;32.13;;
12601;SDS011;30282;16.436;99.370;2023-05-19T00:59:09;50.07;;;32.20;;
12601;SDS011;30282;16.436;99.370;2023-05-19T01:01:40;44.77;;;30.10;;
12601;SDS011;30282;16.436;99.370;2023-05-19T01:04:10;40.83;;;27.53;;
12601;SDS011;30282;16.436;99.370;2023-05-19T01:06:42;39.83;;;29.53;;
12601;SDS011;30282;16.436;99.370;2023-05-19T01:09:14;44.33;;;28.37;;
12601;SDS011;30282;16.436;99.370;2023-05-19T01:11:44;44.80;;;29.10;;
12601;SDS011;30282;16.436;99.370;2023-05-19T01:14:13;41.97;;;26.97;;
12601;SDS011;30282;16.436;99.370;2023-05-19T01:16:46;45.77;;;26.83;;
12601;SDS011;30282;16.436;99.370;2023-05-19T01:19:27;39.67;;;25.73;;
12601;SDS011;30282;16.436;99.370;2023-05-19T01:22:14;35.83;;;23.90;;
12601;SDS011;30282;16.436;99.370;2023-05-19T01:28:01;38.60;;;23.80;;
12601;SDS011;30282;16.436;99.370;2023-05-19T01:30:50;32.80;;;20.43;;
12601;SDS011;30282;16.436;99.370;2023-05-19T01:33:21;28.10;;;17.87;;
12601;SDS011;30282;16.436;99.370;2023-05-19T01:35:51;27.53;;;17.10;;
12601;SDS011;30282;16.436;99.370;2023-05-19T01:38:22;28.33;;;17.30;;
12601;SDS011;30282;16.436;99.370;2023-05-19T01:40:54;32.10;;;18.93;;
12601;SDS011;30282;16.436;99.370;2023-05-19T01:43:25;27.20;;;17.80;;
12601;SDS011;30282;16.436;99.370;2023-05-19T01:45:56;33.87;;;17.10;;
12601;SDS011;30282;16.436;99.370;2023-05-19T01:48:26;25.50;;;16.30;;
12601;SDS011;30282;16.436;99.370;2023-05-19T01:50:57;23.53;;;17.30;;
12601;SDS011;30282;16.436;99.370;2023-05-19T01:53:27;30.17;;;17.47;;
12601;SDS011;30282;16.436;99.370;2023-05-19T01:55:56;33.60;;;16.63;;
12601;SDS011;30282;16.436;99.370;2023-05-19T01:58:29;27.60;;;16.40;;
12601;SDS011;30282;16.436;99.370;2023-05-19T02:01:08;26.87;;;16.17;;
12601;SDS011;30282;16.436;99.370;2023-05-19T02:03:47;21.53;;;15.97;;
12601;SDS011;30282;16.436;99.370;2023-05-19T02:06:31;27.33;;;16.63;;
12601;SDS011;30282;16.436;99.370;2023-05-19T02:09:10;27.87;;;15.30;;
12601;SDS011;30282;16.436;99.370;2023-05-19T02:11:44;41.00;;;18.00;;
12601;SDS011;30282;16.436;99.370;2023-05-19T02:14:22;26.23;;;15.07;;
12601;SDS011;30282;16.436;99.370;2023-05-19T02:16:58;36.70;;;16.50;;
12601;SDS011;30282;16.436;99.370;2023-05-19T02:19:32;26.87;;;15.00;;
12601;SDS011;30282;16.436;99.370;2023-05-19T02:22:02;25.50;;;15.30;;
12601;SDS011;30282;16.436;99.370;2023-05-19T02:24:36;26.80;;;17.13;;
12601;SDS011;30282;16.436;99.370;2023-05-19T02:27:06;28.67;;;16.90;;
12601;SDS011;30282;16.436;99.370;2023-05-19T02:29:35;30.10;;;16.90;;
12601;SDS011;30282;16.436;99.370;2023-05-19T02:32:06;32.23;;;16.30;;
12601;SDS011;30282;16.436;99.370;2023-05-19T02:34:36;31.07;;;17.73;;
12601;SDS011;30282;16.436;99.370;2023-05-19T02:37:06;27.40;;;17.67;;
12601;SDS011;30282;16.436;99.370;2023-05-19T02:39:36;23.57;;;16.10;;
12601;SDS011;30282;16.436;99.370;2023-05-19T02:42:05;23.23;;;15.97;;
12601;SDS011;30282;16.436;99.370;2023-05-19T02:44:34;28.33;;;17.80;;
12601;SDS011;30282;16.436;99.370;2023-05-19T02:47:04;27.10;;;17.33;;
12601;SDS011;30282;16.436;99.370;2023-05-19T02:49:35;29.03;;;17.27;;
12601;SDS011;30282;16.436;99.370;2023-05-19T02:52:04;27.87;;;15.63;;
12601;SDS011;30282;16.436;99.370;2023-05-19T02:54:34;27.43;;;18.03;;
12601;SDS011;30282;16.436;99.370;2023-05-19T02:57:03;47.47;;;17.47;;
12601;SDS011;30282;16.436;99.370;2023-05-19T02:59:33;26.43;;;15.20;;
12601;SDS011;30282;16.436;99.370;2023-05-19T03:02:02;28.37;;;16.43;;
12601;SDS011;30282;16.436;99.370;2023-05-19T03:04:33;44.03;;;17.30;;
12601;SDS011;30282;16.436;99.370;2023-05-19T03:07:06;23.37;;;16.20;;
12601;SDS011;30282;16.436;99.370;2023-05-19T03:09:38;26.73;;;15.90;;
12601;SDS011;30282;16.436;99.370;2023-05-19T03:12:07;29.03;;;15.60;;
12601;SDS011;30282;16.436;99.370;2023-05-19T03:14:36;29.23;;;16.20;;
12601;SDS011;30282;16.436;99.370;2023-05-19T03:17:05;28.30;;;15.00;;
12601;SDS011;30282;16.436;99.370;2023-05-19T03:19:36;25.20;;;16.27;;
12601;SDS011;30282;16.436;99.370;2023-05-19T03:22:06;31.93;;;15.97;;
12601;SDS011;30282;16.436;99.370;2023-05-19T03:24:35;23.10;;;15.43;;
12601;SDS011;30282;16.436;99.370;2023-05-19T03:27:07;23.60;;;15.30;;
12601;SDS011;30282;16.436;99.370;2023-05-19T03:29:39;19.90;;;15.40;;
12601;SDS011;30282;16.436;99.370;2023-05-19T03:32:08;24.60;;;14.70;;
12601;SDS011;30282;16.436;99.370;2023-05-19T03:34:39;31.40;;;15.33;;
12601;SDS011;30282;16.436;99.370;2023-05-19T03:37:08;36.00;;;14.87;;
12601;SDS011;30282;16.436;99.370;2023-05-19T03:39:38;25.53;;;15.33;;
12601;SDS011;30282;16.436;99.370;2023-05-19T03:42:07;26.77;;;15.30;;
12601;SDS011;30282;16.436;99.370;2023-05-19T03:44:36;21.30;;;14.53;;
12601;SDS011;30282;16.436;99.370;2023-05-19T03:47:06;24.60;;;13.87;;
12601;SDS011;30282;16.436;99.370;2023-05-19T03:49:35;21.60;;;13.00;;
12601;SDS011;30282;16.436;99.370;2023-05-19T03:52:06;22.87;;;13.20;;
12601;SDS011;30282;16.436;99.370;2023-05-19T03:54:37;22.97;;;13.30;;
12601;SDS011;30282;16.436;99.370;2023-05-19T03:57:09;29.43;;;13.50;;
12601;SDS011;30282;16.436;99.370;2023-05-19T03:59:41;23.00;;;13.00;;
12601;SDS011;30282;16.436;99.370;2023-05-19T04:02:11;23.87;;;13.73;;
12601;SDS011;30282;16.436;99.370;2023-05-19T04:04:40;22.73;;;12.60;;
12601;SDS011;30282;16.436;99.370;2023-05-19T04:07:11;22.60;;;12.10;;
12601;SDS011;30282;16.436;99.370;2023-05-19T04:09:40;17.37;;;12.47;;
12601;SDS011;30282;16.436;99.370;2023-05-19T04:12:09;29.93;;;14.67;;
12601;SDS011;30282;16.436;99.370;2023-05-19T04:14:39;24.10;;;14.63;;
12601;SDS011;30282;16.436;99.370;2023-05-19T04:17:08;28.43;;;14.37;;
12601;SDS011;30282;16.436;99.370;2023-05-19T04:19:37;24.87;;;13.87;;
12601;SDS011;30282;16.436;99.370;2023-05-19T04:22:06;25.13;;;13.60;;
12601;SDS011;30282;16.436;99.370;2023-05-19T04:24:37;20.13;;;12.97;;
12601;SDS011;30282;16.436;99.370;2023-05-19T04:27:07;25.00;;;13.30;;
12601;SDS011;30282;16.436;99.370;2023-05-19T04:29:36;22.60;;;12.13;;
12601;SDS011;30282;16.436;99.370;2023-05-19T04:32:06;26.97;;;13.10;;
12601;SDS011;30282;16.436;99.370;2023-05-19T04:34:35;19.17;;;12.23;;
12601;SDS011;30282;16.436;99.370;2023-05-19T04:37:05;18.93;;;13.40;;
12601;SDS011;30282;16.436;99.370;2023-05-19T04:39:35;28.17;;;13.30;;
12601;SDS011;30282;16.436;99.370;2023-05-19T04:42:07;37.27;;;13.33;;
12601;SDS011;30282;16.436;99.370;2023-05-19T04:44:37;28.50;;;12.63;;
12601;SDS011;30282;16.436;99.370;2023-05-19T04:47:06;23.53;;;13.07;;
12601;SDS011;30282;16.436;99.370;2023-05-19T04:49:36;23.10;;;12.50;;
12601;SDS011;30282;16.436;99.370;2023-05-19T04:52:05;33.43;;;11.13;;
12601;SDS011;30282;16.436;99.370;2023-05-19T04:54:38;19.40;;;10.93;;
12601;SDS011;30282;16.436;99.370;2023-05-19T04:57:08;24.07;;;10.90;;
12601;SDS011;30282;16.436;99.370;2023-05-19T04:59:38;19.23;;;11.40;;
12601;SDS011;30282;16.436;99.370;2023-05-19T05:02:07;17.93;;;11.83;;
12601;SDS011;30282;16.436;99.370;2023-05-19T05:04:36;26.83;;;11.80;;
12601;SDS011;30282;16.436;99.370;2023-05-19T05:07:08;27.20;;;11.80;;
12601;SDS011;30282;16.436;99.370;2023-05-19T05:09:39;16.00;;;11.10;;
12601;SDS011;30282;16.436;99.370;2023-05-19T05:12:09;18.63;;;11.60;;
12601;SDS011;30282;16.436;99.370;2023-05-19T05:14:40;18.03;;;11.67;;
12601;SDS011;30282;16.436;99.370;2023-05-19T05:17:10;24.83;;;11.93;;
12601;SDS011;30282;16.436;99.370;2023-05-19T05:19:41;21.00;;;12.03;;
12601;SDS011;30282;16.436;99.370;2023-05-19T05:22:10;25.93;;;12.27;;
12601;SDS011;30282;16.436;99.370;2023-05-19T05:24:42;24.97;;;12.27;;
12601;SDS011;30282;16.436;99.370;2023-05-19T05:27:12;23.63;;;12.87;;
12601;SDS011;30282;16.436;99.370;2023-05-19T05:29:41;25.00;;;11.83;;
12601;SDS011;30282;16.436;99.370;2023-05-19T05:32:10;24.70;;;11.70;;
12601;SDS011;30282;16.436;99.370;2023-05-19T05:34:41;17.40;;;10.83;;
12601;SDS011;30282;16.436;99.370;2023-05-19T05:37:10;18.47;;;11.53;;
12601;SDS011;30282;16.436;99.370;2023-05-19T05:39:40;17.07;;;11.37;;
12601;SDS011;30282;16.436;99.370;2023-05-19T05:42:11;21.50;;;11.30;;
12601;SDS011;30282;16.436;99.370;2023-05-19T05:44:40;17.47;;;11.10;;
12601;SDS011;30282;16.436;99.370;2023-05-19T05:47:10;21.27;;;12.03;;
12601;SDS011;30282;16.436;99.370;2023-05-19T05:49:40;23.03;;;11.93;;
12601;SDS011;30282;16.436;99.370;2023-05-19T05:52:12;25.17;;;11.60;;
12601;SDS011;30282;16.436;99.370;2023-05-19T05:54:47;23.23;;;12.03;;
12601;SDS011;30282;16.436;99.370;2023-05-19T05:57:17;37.53;;;11.83;;
12601;SDS011;30282;16.436;99.370;2023-05-19T05:59:46;21.73;;;11.70;;
12601;SDS011;30282;16.436;99.370;2023-05-19T06:02:16;23.53;;;11.77;;
12601;SDS011;30282;16.436;99.370;2023-05-19T06:04:45;24.23;;;11.47;;
12601;SDS011;30282;16.436;99.370;2023-05-19T06:07:14;24.13;;;10.70;;
12601;SDS011;30282;16.436;99.370;2023-05-19T06:09:58;30.80;;;10.83;;
12601;SDS011;30282;16.436;99.370;2023-05-19T06:12:27;22.03;;;10.50;;
12601;SDS011;30282;16.436;99.370;2023-05-19T06:14:56;27.43;;;10.53;;
12601;SDS011;30282;16.436;99.370;2023-05-19T06:17:25;30.30;;;12.67;;
12601;SDS011;30282;16.436;99.370;2023-05-19T06:19:54;23.60;;;11.33;;
12601;SDS011;30282;16.436;99.370;2023-05-19T06:22:23;20.90;;;11.10;;
12601;SDS011;30282;16.436;99.370;2023-05-19T06:24:55;19.93;;;11.30;;
12601;SDS011;30282;16.436;99.370;2023-05-19T06:27:26;28.00;;;12.13;;
12601;SDS011;30282;16.436;99.370;2023-05-19T06:29:55;26.80;;;12.27;;
12601;SDS011;30282;16.436;99.370;2023-05-19T06:32:24;17.17;;;11.20;;
12601;SDS011;30282;16.436;99.370;2023-05-19T06:34:54;16.80;;;12.03;;
12601;SDS011;30282;16.436;99.370;2023-05-19T06:37:23;18.13;;;11.17;;
12601;SDS011;30282;16.436;99.370;2023-05-19T06:39:52;17.63;;;11.77;;
12601;SDS011;30282;16.436;99.370;2023-05-19T06:42:23;20.20;;;11.93;;
12601;SDS011;30282;16.436;99.370;2023-05-19T06:44:54;19.97;;;11.80;;
12601;SDS011;30282;16.436;99.370;2023-05-19T06:47:24;21.03;;;11.43;;
12601;SDS011;30282;16.436;99.370;2023-05-19T06:49:53;23.67;;;11.43;;
12601;SDS011;30282;16.436;99.370;2023-05-19T06:52:22;16.27;;;11.67;;
12601;SDS011;30282;16.436;99.370;2023-05-19T06:54:51;26.40;;;11.30;;
12601;SDS011;30282;16.436;99.370;2023-05-19T06:57:22;12.63;;;10.90;;
12601;SDS011;30282;16.436;99.370;2023-05-19T07:00:14;17.47;;;11.03;;
12601;SDS011;30282;16.436;99.370;2023-05-19T07:02:44;17.90;;;10.40;;
12601;SDS011;30282;16.436;99.370;2023-05-19T07:05:13;15.23;;;11.77;;
12601;SDS011;30282;16.436;99.370;2023-05-19T07:07:42;15.47;;;10.50;;
12601;SDS011;30282;16.436;99.370;2023-05-19T07:10:13;21.07;;;11.40;;
12601;SDS011;30282;16.436;99.370;2023-05-19T07:12:44;19.83;;;10.60;;
12601;SDS011;30282;16.436;99.370;2023-05-19T07:15:13;20.70;;;12.03;;
12601;SDS011;30282;16.436;99.370;2023-05-19T07:17:42;21.93;;;10.97;;
12601;SDS011;30282;16.436;99.370;2023-05-19T07:20:11;26.87;;;11.70;;
12601;SDS011;30282;16.436;99.370;2023-05-19T07:22:43;15.57;;;11.10;;
12601;SDS011;30282;16.436;99.370;2023-05-19T07:25:12;23.87;;;11.77;;
12601;SDS011;30282;16.436;99.370;2023-05-19T07:27:41;21.33;;;11.30;;
12601;SDS011;30282;16.436;99.370;2023-05-19T07:30:12;19.03;;;11.40;;
12601;SDS011;30282;16.436;99.370;2023-05-19T07:32:41;21.97;;;11.03;;
12601;SDS011;30282;16.436;99.370;2023-05-19T07:35:10;17.97;;;11.60;;
12601;SDS011;30282;16.436;99.370;2023-05-19T07:37:39;19.57;;;11.67;;
12601;SDS011;30282;16.436;99.370;2023-05-19T07:40:09;19.27;;;12.37;;
12601;SDS011;30282;16.436;99.370;2023-05-19T07:42:38;20.70;;;12.80;;
12601;SDS011;30282;16.436;99.370;2023-05-19T07:45:09;26.70;;;12.33;;
12601;SDS011;30282;16.436;99.370;2023-05-19T07:47:39;21.30;;;12.30;;
12601;SDS011;30282;16.436;99.370;2023-05-19T07:50:08;23.83;;;12.80;;
12601;SDS011;30282;16.436;99.370;2023-05-19T07:52:37;26.23;;;13.27;;
12601;SDS011;30282;16.436;99.370;2023-05-19T07:55:09;22.87;;;14.20;;
12601;SDS011;30282;16.436;99.370;2023-05-19T07:57:42;18.97;;;12.00;;
12601;SDS011;30282;16.436;99.370;2023-05-19T08:00:14;21.53;;;12.53;;
12601;SDS011;30282;16.436;99.370;2023-05-19T08:02:43;20.60;;;12.90;;
12601;SDS011;30282;16.436;99.370;2023-05-19T08:05:12;22.63;;;13.20;;
12601;SDS011;30282;16.436;99.370;2023-05-19T08:07:41;21.43;;;13.77;;
12601;SDS011;30282;16.436;99.370;2023-05-19T08:10:10;26.13;;;12.90;;
12601;SDS011;30282;16.436;99.370;2023-05-19T08:12:40;22.17;;;12.10;;
12601;SDS011;30282;16.436;99.370;2023-05-19T08:15:11;16.70;;;11.77;;
12601;SDS011;30282;16.436;99.370;2023-05-19T08:17:42;33.30;;;13.63;;
12601;SDS011;30282;16.436;99.370;2023-05-19T08:20:11;23.73;;;12.70;;
12601;SDS011;30282;16.436;99.370;2023-05-19T08:22:40;27.00;;;12.67;;
12601;SDS011;30282;16.436;99.370;2023-05-19T08:25:09;27.90;;;12.80;;
12601;SDS011;30282;16.436;99.370;2023-05-19T08:27:38;24.20;;;12.50;;
12601;SDS011;30282;16.436;99.370;2023-05-19T08:30:08;19.97;;;13.00;;
12601;SDS011;30282;16.436;99.370;2023-05-19T08:32:39;20.63;;;12.80;;
12601;SDS011;30282;16.436;99.370;2023-05-19T08:35:14;22.17;;;12.60;;
12601;SDS011;30282;16.436;99.370;2023-05-19T08:37:44;24.93;;;12.47;;
12601;SDS011;30282;16.436;99.370;2023-05-19T08:40:14;38.80;;;14.63;;
12601;SDS011;30282;16.436;99.370;2023-05-19T08:42:44;16.87;;;12.03;;
12601;SDS011;30282;16.436;99.370;2023-05-19T08:45:13;27.67;;;13.23;;
12601;SDS011;30282;16.436;99.370;2023-05-19T08:47:45;26.40;;;13.03;;
12601;SDS011;30282;16.436;99.370;2023-05-19T08:50:16;26.63;;;13.33;;
12601;SDS011;30282;16.436;99.370;2023-05-19T08:52:50;17.73;;;13.40;;
12601;SDS011;30282;16.436;99.370;2023-05-19T08:55:26;26.47;;;13.07;;
12601;SDS011;30282;16.436;99.370;2023-05-19T08:58:01;25.47;;;13.50;;
12601;SDS011;30282;16.436;99.370;2023-05-19T09:00:31;27.57;;;12.33;;
12601;SDS011;30282;16.436;99.370;2023-05-19T09:03:02;25.43;;;11.97;;
12601;SDS011;30282;16.436;99.370;2023-05-19T09:05:32;15.77;;;12.07;;
12601;SDS011;30282;16.436;99.370;2023-05-19T09:08:02;24.90;;;13.90;;
12601;SDS011;30282;16.436;99.370;2023-05-19T09:10:32;18.23;;;12.40;;
12601;SDS011;30282;16.436;99.370;2023-05-19T09:13:01;21.57;;;12.60;;
12601;SDS011;30282;16.436;99.370;2023-05-19T09:15:31;21.47;;;12.03;;
12601;SDS011;30282;16.436;99.370;2023-05-19T09:18:09;24.57;;;12.20;;
12601;SDS011;30282;16.436;99.370;2023-05-19T09:20:39;25.93;;;13.40;;
12601;SDS011;30282;16.436;99.370;2023-05-19T09:23:11;27.80;;;12.90;;
12601;SDS011;30282;16.436;99.370;2023-05-19T09:25:47;24.17;;;12.03;;
12601;SDS011;30282;16.436;99.370;2023-05-19T09:28:23;27.53;;;14.83;;
12601;SDS011;30282;16.436;99.370;2023-05-19T09:31:00;29.67;;;14.10;;
12601;SDS011;30282;16.436;99.370;2023-05-19T09:33:32;21.87;;;12.90;;
12601;SDS011;30282;16.436;99.370;2023-05-19T09:36:02;21.77;;;13.47;;
12601;SDS011;30282;16.436;99.370;2023-05-19T09:38:33;29.43;;;12.30;;
12601;SDS011;30282;16.436;99.370;2023-05-19T09:41:04;26.80;;;11.80;;
12601;SDS011;30282;16.436;99.370;2023-05-19T09:43:35;18.27;;;12.17;;
12601;SDS011;30282;16.436;99.370;2023-05-19T09:46:04;18.80;;;11.07;;
12601;SDS011;30282;16.436;99.370;2023-05-19T09:48:37;25.17;;;12.00;;
12601;SDS011;30282;16.436;99.370;2023-05-19T09:51:06;19.50;;;12.13;;
12601;SDS011;30282;16.436;99.370;2023-05-19T09:53:36;20.50;;;11.93;;
12601;SDS011;30282;16.436;99.370;2023-05-19T09:56:05;23.60;;;12.30;;
12601;SDS011;30282;16.436;99.370;2023-05-19T09:58:36;26.57;;;12.40;;
12601;SDS011;30282;16.436;99.370;2023-05-19T10:01:08;18.10;;;11.20;;
12601;SDS011;30282;16.436;99.370;2023-05-19T10:03:39;25.47;;;11.90;;
12601;SDS011;30282;16.436;99.370;2023-05-19T10:06:09;23.90;;;11.07;;
12601;SDS011;30282;16.436;99.370;2023-05-19T10:08:40;25.50;;;11.43;;
12601;SDS011;30282;16.436;99.370;2023-05-19T10:11:10;21.60;;;12.17;;
12601;SDS011;30282;16.436;99.370;2023-05-19T10:13:42;26.90;;;12.30;;
12601;SDS011;30282;16.436;99.370;2023-05-19T10:16:13;34.23;;;13.97;;
12601;SDS011;30282;16.436;99.370;2023-05-19T10:18:45;20.80;;;12.50;;
12601;SDS011;30282;16.436;99.370;2023-05-19T10:21:16;27.03;;;12.70;;
12601;SDS011;30282;16.436;99.370;2023-05-19T10:23:45;21.10;;;13.00;;
12601;SDS011;30282;16.436;99.370;2023-05-19T10:26:14;22.70;;;12.00;;
12601;SDS011;30282;16.436;99.370;2023-05-19T10:28:44;27.20;;;12.33;;
12601;SDS011;30282;16.436;99.370;2023-05-19T10:31:15;22.47;;;12.73;;
12601;SDS011;30282;16.436;99.370;2023-05-19T10:34:03;25.77;;;13.80;;
12601;SDS011;30282;16.436;99.370;2023-05-19T10:37:01;26.33;;;12.57;;
12601;SDS011;30282;16.436;99.370;2023-05-19T10:39:40;22.33;;;12.10;;
12601;SDS011;30282;16.436;99.370;2023-05-19T10:42:12;24.07;;;11.60;;
12601;SDS011;30282;16.436;99.370;2023-05-19T10:44:48;27.57;;;12.20;;
12601;SDS011;30282;16.436;99.370;2023-05-19T10:47:25;47.07;;;12.87;;
12601;SDS011;30282;16.436;99.370;2023-05-19T10:49:55;25.80;;;12.70;;
12601;SDS011;30282;16.436;99.370;2023-05-19T10:52:28;25.23;;;12.83;;
12601;SDS011;30282;16.436;99.370;2023-05-19T10:54:57;21.70;;;13.57;;
12601;SDS011;30282;16.436;99.370;2023-05-19T10:57:29;24.17;;;12.50;;
12601;SDS011;30282;16.436;99.370;2023-05-19T10:59:58;27.80;;;12.00;;
12601;SDS011;30282;16.436;99.370;2023-05-19T11:02:36;21.80;;;12.53;;
12601;SDS011;30282;16.436;99.370;2023-05-19T11:05:09;21.23;;;12.60;;
12601;SDS011;30282;16.436;99.370;2023-05-19T11:07:42;18.73;;;12.27;;
12601;SDS011;30282;16.436;99.370;2023-05-19T11:10:21;23.23;;;12.47;;
12601;SDS011;30282;16.436;99.370;2023-05-19T11:12:51;27.70;;;13.77;;
12601;SDS011;30282;16.436;99.370;2023-05-19T11:15:24;22.63;;;14.00;;
12601;SDS011;30282;16.436;99.370;2023-05-19T11:17:54;22.07;;;13.00;;
12601;SDS011;30282;16.436;99.370;2023-05-19T11:20:25;21.17;;;13.53;;
12601;SDS011;30282;16.436;99.370;2023-05-19T11:23:04;19.37;;;12.90;;
12601;SDS011;30282;16.436;99.370;2023-05-19T11:25:40;29.00;;;14.33;;
12601;SDS011;30282;16.436;99.370;2023-05-19T11:28:16;25.60;;;12.70;;
12601;SDS011;30282;16.436;99.370;2023-05-19T11:30:51;26.67;;;13.43;;
12601;SDS011;30282;16.436;99.370;2023-05-19T11:33:22;27.63;;;14.17;;
12601;SDS011;30282;16.436;99.370;2023-05-19T11:35:53;20.63;;;13.20;;
12601;SDS011;30282;16.436;99.370;2023-05-19T11:38:24;23.50;;;14.03;;
12601;SDS011;30282;16.436;99.370;2023-05-19T11:40:54;26.83;;;14.50;;
12601;SDS011;30282;16.436;99.370;2023-05-19T11:43:23;23.70;;;12.87;;
12601;SDS011;30282;16.436;99.370;2023-05-19T11:45:53;26.93;;;12.93;;
12601;SDS011;30282;16.436;99.370;2023-05-19T11:48:22;29.03;;;12.87;;
12601;SDS011;30282;16.436;99.370;2023-05-19T11:50:54;21.60;;;12.90;;
12601;SDS011;30282;16.436;99.370;2023-05-19T11:53:23;28.63;;;13.00;;
12601;SDS011;30282;16.436;99.370;2023-05-19T11:56:02;24.40;;;12.73;;
12601;SDS011;30282;16.436;99.370;2023-05-19T11:58:31;22.90;;;12.87;;
12601;SDS011;30282;16.436;99.370;2023-05-19T12:01:02;22.07;;;13.00;;
12601;SDS011;30282;16.436;99.370;2023-05-19T12:03:32;16.87;;;12.33;;
12601;SDS011;30282;16.436;99.370;2023-05-19T12:06:03;21.83;;;12.80;;
12601;SDS011;30282;16.436;99.370;2023-05-19T12:08:34;26.27;;;14.30;;
12601;SDS011;30282;16.436;99.370;2023-05-19T12:11:06;20.60;;;14.00;;
12601;SDS011;30282;16.436;99.370;2023-05-19T12:13:35;19.20;;;13.27;;
12601;SDS011;30282;16.436;99.370;2023-05-19T12:16:05;29.30;;;14.40;;
12601;SDS011;30282;16.436;99.370;2023-05-19T12:18:35;26.63;;;13.07;;
12601;SDS011;30282;16.436;99.370;2023-05-19T12:21:06;22.80;;;13.67;;
12601;SDS011;30282;16.436;99.370;2023-05-19T12:23:35;22.17;;;13.63;;
12601;SDS011;30282;16.436;99.370;2023-05-19T12:26:06;21.30;;;13.33;;
12601;SDS011;30282;16.436;99.370;2023-05-19T12:28:35;20.00;;;13.60;;
12601;SDS011;30282;16.436;99.370;2023-05-19T12:31:04;28.30;;;15.53;;
12601;SDS011;30282;16.436;99.370;2023-05-19T12:33:33;24.07;;;14.37;;
12601;SDS011;30282;16.436;99.370;2023-05-19T12:36:03;27.20;;;14.10;;
12601;SDS011;30282;16.436;99.370;2023-05-19T12:38:35;23.50;;;14.97;;
12601;SDS011;30282;16.436;99.370;2023-05-19T12:41:04;23.43;;;14.23;;
12601;SDS011;30282;16.436;99.370;2023-05-19T12:43:33;30.43;;;16.43;;
12601;SDS011;30282;16.436;99.370;2023-05-19T12:46:08;22.90;;;15.63;;
12601;SDS011;30282;16.436;99.370;2023-05-19T12:48:39;24.10;;;15.50;;
12601;SDS011;30282;16.436;99.370;2023-05-19T12:51:10;26.77;;;15.90;;
12601;SDS011;30282;16.436;99.370;2023-05-19T12:53:44;34.20;;;16.07;;
12601;SDS011;30282;16.436;99.370;2023-05-19T12:56:14;23.63;;;15.77;;
12601;SDS011;30282;16.436;99.370;2023-05-19T12:58:43;35.40;;;16.03;;
12601;SDS011;30282;16.436;99.370;2023-05-19T13:01:15;28.43;;;15.87;;
12601;SDS011;30282;16.436;99.370;2023-05-19T13:03:45;23.10;;;16.63;;
12601;SDS011;30282;16.436;99.370;2023-05-19T13:06:20;29.47;;;15.90;;
12601;SDS011;30282;16.436;99.370;2023-05-19T13:08:52;29.60;;;17.03;;
12601;SDS011;30282;16.436;99.370;2023-05-19T13:11:21;28.13;;;16.50;;
12601;SDS011;30282;16.436;99.370;2023-05-19T13:13:50;33.80;;;16.40;;
12601;SDS011;30282;16.436;99.370;2023-05-19T13:16:20;28.40;;;16.50;;
12601;SDS011;30282;16.436;99.370;2023-05-19T13:18:49;40.60;;;18.57;;
12601;SDS011;30282;16.436;99.370;2023-05-19T13:21:20;31.00;;;15.80;;
12601;SDS011;30282;16.436;99.370;2023-05-19T13:23:49;26.60;;;15.83;;
12601;SDS011;30282;16.436;99.370;2023-05-19T13:26:18;30.63;;;16.87;;
12601;SDS011;30282;16.436;99.370;2023-05-19T13:28:48;31.37;;;17.13;;
12601;SDS011;30282;16.436;99.370;2023-05-19T13:31:17;29.83;;;16.90;;
12601;SDS011;30282;16.436;99.370;2023-05-19T13:33:46;27.37;;;17.30;;
12601;SDS011;30282;16.436;99.370;2023-05-19T13:36:15;28.80;;;17.13;;
12601;SDS011;30282;16.436;99.370;2023-05-19T13:38:48;33.97;;;17.50;;
12601;SDS011;30282;16.436;99.370;2023-05-19T13:41:21;32.80;;;18.17;;
12601;SDS011;30282;16.436;99.370;2023-05-19T13:43:51;25.63;;;17.17;;
12601;SDS011;30282;16.436;99.370;2023-05-19T13:46:20;30.97;;;17.47;;
12601;SDS011;30282;16.436;99.370;2023-05-19T13:48:49;31.50;;;18.43;;
12601;SDS011;30282;16.436;99.370;2023-05-19T13:51:18;28.37;;;17.77;;
12601;SDS011;30282;16.436;99.370;2023-05-19T13:53:49;26.17;;;17.77;;
12601;SDS011;30282;16.436;99.370;2023-05-19T13:56:18;33.80;;;18.70;;
12601;SDS011;30282;16.436;99.370;2023-05-19T13:58:47;28.93;;;18.53;;
12601;SDS011;30282;16.436;99.370;2023-05-19T14:01:16;32.57;;;19.10;;
12601;SDS011;30282;16.436;99.370;2023-05-19T14:03:45;32.53;;;18.10;;
12601;SDS011;30282;16.436;99.370;2023-05-19T14:06:14;38.77;;;18.40;;
12601;SDS011;30282;16.436;99.370;2023-05-19T14:08:43;30.63;;;19.90;;
12601;SDS011;30282;16.436;99.370;2023-05-19T14:11:18;30.40;;;17.53;;
12601;SDS011;30282;16.436;99.370;2023-05-19T14:13:47;30.90;;;18.17;;
12601;SDS011;30282;16.436;99.370;2023-05-19T14:16:16;26.53;;;18.20;;
12601;SDS011;30282;16.436;99.370;2023-05-19T14:18:46;34.10;;;19.47;;
12601;SDS011;30282;16.436;99.370;2023-05-19T14:21:15;47.23;;;20.67;;
12601;SDS011;30282;16.436;99.370;2023-05-19T14:23:44;31.90;;;18.83;;
12601;SDS011;30282;16.436;99.370;2023-05-19T14:26:13;28.50;;;19.77;;
12601;SDS011;30282;16.436;99.370;2023-05-19T14:28:44;35.83;;;21.30;;
12601;SDS011;30282;16.436;99.370;2023-05-19T14:31:13;45.30;;;23.20;;
12601;SDS011;30282;16.436;99.370;2023-05-19T14:33:42;37.20;;;24.50;;